Decoded Metar for LFOV (LAVAL in FRANCE) (IATA:LVA) | Meteo·Mobile Aviation Weather
aviador You're here:

LFOV Decoded Metar

LAVAL in FRANCE
Report Time2019-02-17 07:00:00
UTC Time2019-02-17 07:20:39
Flight Rules vfr VFR
Wind150° at 05 kt
W.Decomp.*RWY 14: 4.9 kt HW 1.0 kt RCW
W.Rank150° ranks 35
Current wind is below 150° avg. (6.0)
Visibility9999 m
Phenomena:N/A
Clouds:N/A
Expected CloudBase > 1,600 ft AGL from Temp-Dew spread
CeilingNone
Temp05°C (ISA -9)
Dew Point01°C (76% RH)
AAT1.4°C
QNH1018 hPa
Density Alt-892 ft
Elevation318 ft
Report Wrong Elevation
Raw Report
METAR LFOV 170700Z AUTO 15005KT CAVOK 05/01 Q1018=

Extra information for LFOV:More info

Metar Taf Metar & Taf Last 4 Metars F.Rules Stats Wind Profile Meteogram Temp Stats Airport Information Weather charts Add Link Nearby VenuesMetar ALERT Operation Metar Decoded Social comments